sensor_id;sensor_type;location;lat;lon;timestamp;P1;durP1;ratioP1;P2;durP2;ratioP2
7683;SDS011;3884;48.616;12.872;2022-07-30T00:02:20;6.20;;;5.60;;
7683;SDS011;3884;48.616;12.872;2022-07-30T00:04:47;6.30;;;5.70;;
7683;SDS011;3884;48.616;12.872;2022-07-30T00:07:14;6.80;;;5.87;;
7683;SDS011;3884;48.616;12.872;2022-07-30T00:09:41;6.40;;;5.90;;
7683;SDS011;3884;48.616;12.872;2022-07-30T00:12:08;6.67;;;6.07;;
7683;SDS011;3884;48.616;12.872;2022-07-30T00:14:37;7.20;;;6.50;;
7683;SDS011;3884;48.616;12.872;2022-07-30T00:17:03;6.50;;;5.90;;
7683;SDS011;3884;48.616;12.872;2022-07-30T00:19:31;6.93;;;6.23;;
7683;SDS011;3884;48.616;12.872;2022-07-30T00:21:58;7.40;;;6.67;;
7683;SDS011;3884;48.616;12.872;2022-07-30T00:24:25;7.50;;;6.80;;
7683;SDS011;3884;48.616;12.872;2022-07-30T00:26:52;7.87;;;7.13;;
7683;SDS011;3884;48.616;12.872;2022-07-30T00:29:19;7.17;;;6.43;;
7683;SDS011;3884;48.616;12.872;2022-07-30T00:31:47;7.63;;;6.83;;
7683;SDS011;3884;48.616;12.872;2022-07-30T00:34:14;7.67;;;6.97;;
7683;SDS011;3884;48.616;12.872;2022-07-30T00:36:41;8.03;;;7.23;;
7683;SDS011;3884;48.616;12.872;2022-07-30T00:39:08;8.90;;;6.80;;
7683;SDS011;3884;48.616;12.872;2022-07-30T00:44:21;7.67;;;6.67;;
7683;SDS011;3884;48.616;12.872;2022-07-30T00:46:50;7.47;;;6.73;;
7683;SDS011;3884;48.616;12.872;2022-07-30T00:49:16;8.07;;;7.27;;
7683;SDS011;3884;48.616;12.872;2022-07-30T00:51:43;7.60;;;6.87;;
7683;SDS011;3884;48.616;12.872;2022-07-30T00:54:11;7.37;;;6.67;;
7683;SDS011;3884;48.616;12.872;2022-07-30T00:56:39;7.17;;;6.47;;
7683;SDS011;3884;48.616;12.872;2022-07-30T00:59:06;7.60;;;6.40;;
7683;SDS011;3884;48.616;12.872;2022-07-30T01:01:33;7.33;;;6.63;;
7683;SDS011;3884;48.616;12.872;2022-07-30T01:04:02;6.23;;;5.60;;
7683;SDS011;3884;48.616;12.872;2022-07-30T01:06:32;5.83;;;5.23;;
7683;SDS011;3884;48.616;12.872;2022-07-30T01:08:59;5.90;;;5.40;;
7683;SDS011;3884;48.616;12.872;2022-07-30T01:11:27;6.60;;;5.43;;
7683;SDS011;3884;48.616;12.872;2022-07-30T01:13:59;5.60;;;5.10;;
7683;SDS011;3884;48.616;12.872;2022-07-30T01:16:26;6.93;;;5.10;;
7683;SDS011;3884;48.616;12.872;2022-07-30T01:18:53;5.07;;;4.67;;
7683;SDS011;3884;48.616;12.872;2022-07-30T01:21:42;4.97;;;4.57;;
7683;SDS011;3884;48.616;12.872;2022-07-30T01:24:20;5.60;;;4.70;;
7683;SDS011;3884;48.616;12.872;2022-07-30T01:26:53;5.53;;;5.03;;
7683;SDS011;3884;48.616;12.872;2022-07-30T01:29:22;5.50;;;5.10;;
7683;SDS011;3884;48.616;12.872;2022-07-30T01:31:50;6.27;;;4.70;;
7683;SDS011;3884;48.616;12.872;2022-07-30T01:34:23;5.67;;;5.17;;
7683;SDS011;3884;48.616;12.872;2022-07-30T01:36:53;5.60;;;5.07;;
7683;SDS011;3884;48.616;12.872;2022-07-30T01:39:22;5.50;;;5.03;;
7683;SDS011;3884;48.616;12.872;2022-07-30T01:41:52;5.77;;;5.23;;
7683;SDS011;3884;48.616;12.872;2022-07-30T01:44:22;6.37;;;5.63;;
7683;SDS011;3884;48.616;12.872;2022-07-30T01:46:52;5.97;;;5.47;;
7683;SDS011;3884;48.616;12.872;2022-07-30T01:49:21;5.60;;;5.10;;
7683;SDS011;3884;48.616;12.872;2022-07-30T01:51:49;6.80;;;5.17;;
7683;SDS011;3884;48.616;12.872;2022-07-30T01:54:17;6.53;;;5.77;;
7683;SDS011;3884;48.616;12.872;2022-07-30T01:56:45;5.63;;;5.10;;
7683;SDS011;3884;48.616;12.872;2022-07-30T01:59:17;6.50;;;5.53;;
7683;SDS011;3884;48.616;12.872;2022-07-30T02:01:46;5.33;;;4.90;;
7683;SDS011;3884;48.616;12.872;2022-07-30T02:04:14;6.27;;;5.63;;
7683;SDS011;3884;48.616;12.872;2022-07-30T02:06:42;6.47;;;5.80;;
7683;SDS011;3884;48.616;12.872;2022-07-30T02:09:15;5.70;;;5.20;;
7683;SDS011;3884;48.616;12.872;2022-07-30T02:11:49;5.90;;;5.30;;
7683;SDS011;3884;48.616;12.872;2022-07-30T02:14:40;5.37;;;4.90;;
7683;SDS011;3884;48.616;12.872;2022-07-30T02:17:14;5.97;;;5.47;;
7683;SDS011;3884;48.616;12.872;2022-07-30T02:19:46;6.50;;;5.90;;
7683;SDS011;3884;48.616;12.872;2022-07-30T02:22:18;6.17;;;5.67;;
7683;SDS011;3884;48.616;12.872;2022-07-30T02:24:47;6.47;;;5.50;;
7683;SDS011;3884;48.616;12.872;2022-07-30T02:27:17;6.53;;;5.93;;
7683;SDS011;3884;48.616;12.872;2022-07-30T02:29:50;6.93;;;5.63;;
7683;SDS011;3884;48.616;12.872;2022-07-30T02:32:20;7.80;;;6.07;;
7683;SDS011;3884;48.616;12.872;2022-07-30T02:34:52;5.97;;;5.47;;
7683;SDS011;3884;48.616;12.872;2022-07-30T02:37:25;5.70;;;5.20;;
7683;SDS011;3884;48.616;12.872;2022-07-30T02:39:55;5.23;;;4.77;;
7683;SDS011;3884;48.616;12.872;2022-07-30T02:42:24;6.10;;;5.50;;
7683;SDS011;3884;48.616;12.872;2022-07-30T02:44:54;6.00;;;5.43;;
7683;SDS011;3884;48.616;12.872;2022-07-30T02:47:23;5.93;;;5.03;;
7683;SDS011;3884;48.616;12.872;2022-07-30T02:49:56;6.30;;;5.70;;
7683;SDS011;3884;48.616;12.872;2022-07-30T02:52:25;5.40;;;4.90;;
7683;SDS011;3884;48.616;12.872;2022-07-30T02:54:54;5.60;;;4.93;;
7683;SDS011;3884;48.616;12.872;2022-07-30T02:57:22;5.97;;;5.47;;
7683;SDS011;3884;48.616;12.872;2022-07-30T02:59:50;5.90;;;5.30;;
7683;SDS011;3884;48.616;12.872;2022-07-30T03:02:20;5.43;;;4.93;;
7683;SDS011;3884;48.616;12.872;2022-07-30T03:04:48;5.77;;;5.17;;
7683;SDS011;3884;48.616;12.872;2022-07-30T03:07:17;6.10;;;5.60;;
7683;SDS011;3884;48.616;12.872;2022-07-30T03:09:46;6.40;;;5.90;;
7683;SDS011;3884;48.616;12.872;2022-07-30T03:12:14;6.37;;;5.50;;
7683;SDS011;3884;48.616;12.872;2022-07-30T03:14:41;5.70;;;5.10;;
7683;SDS011;3884;48.616;12.872;2022-07-30T03:17:08;5.70;;;5.13;;
7683;SDS011;3884;48.616;12.872;2022-07-30T03:19:39;5.80;;;5.27;;
7683;SDS011;3884;48.616;12.872;2022-07-30T03:22:06;6.20;;;5.07;;
7683;SDS011;3884;48.616;12.872;2022-07-30T03:24:35;7.50;;;5.10;;
7683;SDS011;3884;48.616;12.872;2022-07-30T03:27:04;5.43;;;4.93;;
7683;SDS011;3884;48.616;12.872;2022-07-30T03:29:33;5.77;;;4.83;;
7683;SDS011;3884;48.616;12.872;2022-07-30T03:32:03;5.07;;;4.50;;
7683;SDS011;3884;48.616;12.872;2022-07-30T03:34:31;4.77;;;4.37;;
7683;SDS011;3884;48.616;12.872;2022-07-30T03:37:01;4.97;;;4.30;;
7683;SDS011;3884;48.616;12.872;2022-07-30T03:39:32;4.97;;;4.47;;
7683;SDS011;3884;48.616;12.872;2022-07-30T03:42:01;4.90;;;4.40;;
7683;SDS011;3884;48.616;12.872;2022-07-30T03:44:29;4.70;;;4.30;;
7683;SDS011;3884;48.616;12.872;2022-07-30T03:46:57;4.93;;;4.37;;
7683;SDS011;3884;48.616;12.872;2022-07-30T03:49:26;4.57;;;4.20;;
7683;SDS011;3884;48.616;12.872;2022-07-30T03:51:54;5.00;;;4.60;;
7683;SDS011;3884;48.616;12.872;2022-07-30T03:54:23;5.43;;;4.50;;
7683;SDS011;3884;48.616;12.872;2022-07-30T03:57:19;6.60;;;4.60;;
7683;SDS011;3884;48.616;12.872;2022-07-30T03:59:47;5.53;;;4.43;;
7683;SDS011;3884;48.616;12.872;2022-07-30T04:02:16;5.07;;;4.43;;
7683;SDS011;3884;48.616;12.872;2022-07-30T04:04:59;4.90;;;4.50;;
7683;SDS011;3884;48.616;12.872;2022-07-30T04:07:26;4.60;;;4.20;;
7683;SDS011;3884;48.616;12.872;2022-07-30T04:09:54;5.13;;;4.07;;
7683;SDS011;3884;48.616;12.872;2022-07-30T04:12:41;6.03;;;4.70;;
7683;SDS011;3884;48.616;12.872;2022-07-30T04:15:09;5.37;;;4.40;;
7683;SDS011;3884;48.616;12.872;2022-07-30T04:17:37;4.57;;;4.03;;
7683;SDS011;3884;48.616;12.872;2022-07-30T04:20:08;4.80;;;4.50;;
7683;SDS011;3884;48.616;12.872;2022-07-30T04:22:38;4.67;;;4.23;;
7683;SDS011;3884;48.616;12.872;2022-07-30T04:25:07;5.33;;;4.40;;
7683;SDS011;3884;48.616;12.872;2022-07-30T04:27:35;5.33;;;4.30;;
7683;SDS011;3884;48.616;12.872;2022-07-30T04:30:04;7.43;;;4.80;;
7683;SDS011;3884;48.616;12.872;2022-07-30T04:32:36;5.47;;;4.97;;
7683;SDS011;3884;48.616;12.872;2022-07-30T04:35:25;6.33;;;5.13;;
7683;SDS011;3884;48.616;12.872;2022-07-30T04:38:15;5.63;;;5.10;;
7683;SDS011;3884;48.616;12.872;2022-07-30T04:40:48;7.37;;;4.97;;
7683;SDS011;3884;48.616;12.872;2022-07-30T04:43:15;6.43;;;5.50;;
7683;SDS011;3884;48.616;12.872;2022-07-30T04:45:42;6.87;;;6.03;;
7683;SDS011;3884;48.616;12.872;2022-07-30T04:48:10;6.80;;;6.10;;
7683;SDS011;3884;48.616;12.872;2022-07-30T04:50:40;7.00;;;6.07;;
7683;SDS011;3884;48.616;12.872;2022-07-30T04:53:12;6.17;;;5.60;;
7683;SDS011;3884;48.616;12.872;2022-07-30T04:55:47;7.17;;;6.53;;
7683;SDS011;3884;48.616;12.872;2022-07-30T04:58:18;7.07;;;6.47;;
7683;SDS011;3884;48.616;12.872;2022-07-30T05:00:47;8.03;;;7.33;;
7683;SDS011;3884;48.616;12.872;2022-07-30T05:03:22;7.33;;;6.70;;
7683;SDS011;3884;48.616;12.872;2022-07-30T05:05:52;8.47;;;7.63;;
7683;SDS011;3884;48.616;12.872;2022-07-30T05:08:20;10.03;;;8.20;;
7683;SDS011;3884;48.616;12.872;2022-07-30T05:10:49;9.63;;;8.83;;
7683;SDS011;3884;48.616;12.872;2022-07-30T05:13:16;9.17;;;8.40;;
7683;SDS011;3884;48.616;12.872;2022-07-30T05:15:44;9.87;;;8.87;;
7683;SDS011;3884;48.616;12.872;2022-07-30T05:18:14;10.00;;;9.00;;
7683;SDS011;3884;48.616;12.872;2022-07-30T05:20:42;10.97;;;8.60;;
7683;SDS011;3884;48.616;12.872;2022-07-30T05:23:21;10.23;;;9.33;;
7683;SDS011;3884;48.616;12.872;2022-07-30T05:26:14;9.50;;;8.50;;
7683;SDS011;3884;48.616;12.872;2022-07-30T05:28:46;10.60;;;9.70;;
7683;SDS011;3884;48.616;12.872;2022-07-30T05:31:14;9.73;;;8.93;;
7683;SDS011;3884;48.616;12.872;2022-07-30T05:33:49;11.03;;;9.87;;
7683;SDS011;3884;48.616;12.872;2022-07-30T05:36:17;11.03;;;9.93;;
7683;SDS011;3884;48.616;12.872;2022-07-30T05:38:44;10.73;;;9.73;;
7683;SDS011;3884;48.616;12.872;2022-07-30T05:41:21;11.40;;;10.30;;
7683;SDS011;3884;48.616;12.872;2022-07-30T05:44:12;12.93;;;11.73;;
7683;SDS011;3884;48.616;12.872;2022-07-30T05:46:39;12.70;;;10.50;;
7683;SDS011;3884;48.616;12.872;2022-07-30T05:49:06;12.50;;;11.20;;
7683;SDS011;3884;48.616;12.872;2022-07-30T05:51:33;11.80;;;10.70;;
7683;SDS011;3884;48.616;12.872;2022-07-30T05:54:00;11.23;;;10.30;;
7683;SDS011;3884;48.616;12.872;2022-07-30T05:56:31;13.00;;;11.70;;
7683;SDS011;3884;48.616;12.872;2022-07-30T05:59:07;13.53;;;12.13;;
7683;SDS011;3884;48.616;12.872;2022-07-30T06:01:54;13.23;;;12.03;;
7683;SDS011;3884;48.616;12.872;2022-07-30T06:04:27;12.93;;;11.83;;
7683;SDS011;3884;48.616;12.872;2022-07-30T06:07:01;13.80;;;12.50;;
7683;SDS011;3884;48.616;12.872;2022-07-30T06:09:30;14.80;;;13.40;;
7683;SDS011;3884;48.616;12.872;2022-07-30T06:11:58;14.10;;;12.90;;
7683;SDS011;3884;48.616;12.872;2022-07-30T06:14:25;14.90;;;13.40;;
7683;SDS011;3884;48.616;12.872;2022-07-30T06:16:52;14.77;;;13.40;;
7683;SDS011;3884;48.616;12.872;2022-07-30T06:19:20;16.77;;;15.27;;
7683;SDS011;3884;48.616;12.872;2022-07-30T06:21:47;16.53;;;15.03;;
7683;SDS011;3884;48.616;12.872;2022-07-30T06:24:15;15.77;;;14.27;;
7683;SDS011;3884;48.616;12.872;2022-07-30T06:26:58;16.03;;;14.50;;
7683;SDS011;3884;48.616;12.872;2022-07-30T06:29:25;15.53;;;14.03;;
7683;SDS011;3884;48.616;12.872;2022-07-30T06:31:52;18.17;;;16.37;;
7683;SDS011;3884;48.616;12.872;2022-07-30T06:34:19;17.07;;;15.47;;
7683;SDS011;3884;48.616;12.872;2022-07-30T06:36:46;16.70;;;15.07;;
7683;SDS011;3884;48.616;12.872;2022-07-30T06:39:16;20.67;;;18.57;;
7683;SDS011;3884;48.616;12.872;2022-07-30T06:41:52;21.80;;;19.70;;
7683;SDS011;3884;48.616;12.872;2022-07-30T06:44:20;25.13;;;22.67;;
7683;SDS011;3884;48.616;12.872;2022-07-30T06:47:06;24.63;;;22.10;;
7683;SDS011;3884;48.616;12.872;2022-07-30T06:49:34;23.10;;;21.00;;
7683;SDS011;3884;48.616;12.872;2022-07-30T06:52:03;24.93;;;22.47;;
7683;SDS011;3884;48.616;12.872;2022-07-30T06:54:30;24.07;;;21.87;;
7683;SDS011;3884;48.616;12.872;2022-07-30T06:57:11;26.13;;;23.67;;
7683;SDS011;3884;48.616;12.872;2022-07-30T06:59:39;24.30;;;22.00;;
7683;SDS011;3884;48.616;12.872;2022-07-30T07:02:15;22.87;;;20.77;;
7683;SDS011;3884;48.616;12.872;2022-07-30T07:05:01;23.07;;;20.97;;
7683;SDS011;3884;48.616;12.872;2022-07-30T07:07:28;21.30;;;19.43;;
7683;SDS011;3884;48.616;12.872;2022-07-30T07:09:55;22.40;;;20.33;;
7683;SDS011;3884;48.616;12.872;2022-07-30T07:12:48;22.23;;;20.17;;
7683;SDS011;3884;48.616;12.872;2022-07-30T07:15:19;20.00;;;18.30;;
7683;SDS011;3884;48.616;12.872;2022-07-30T07:17:47;17.73;;;16.07;;
7683;SDS011;3884;48.616;12.872;2022-07-30T07:20:43;17.37;;;15.80;;
7683;SDS011;3884;48.616;12.872;2022-07-30T07:23:11;18.37;;;16.77;;
7683;SDS011;3884;48.616;12.872;2022-07-30T07:25:39;19.77;;;18.03;;
7683;SDS011;3884;48.616;12.872;2022-07-30T07:28:07;19.00;;;17.40;;
7683;SDS011;3884;48.616;12.872;2022-07-30T07:30:36;20.30;;;18.50;;
7683;SDS011;3884;48.616;12.872;2022-07-30T07:33:05;18.33;;;16.73;;
7683;SDS011;3884;48.616;12.872;2022-07-30T07:35:32;17.87;;;16.13;;
7683;SDS011;3884;48.616;12.872;2022-07-30T07:37:59;19.37;;;17.67;;
7683;SDS011;3884;48.616;12.872;2022-07-30T07:40:26;20.27;;;18.47;;
7683;SDS011;3884;48.616;12.872;2022-07-30T07:42:55;19.57;;;17.50;;
7683;SDS011;3884;48.616;12.872;2022-07-30T07:45:22;16.80;;;15.27;;
7683;SDS011;3884;48.616;12.872;2022-07-30T07:48:00;18.17;;;16.43;;
7683;SDS011;3884;48.616;12.872;2022-07-30T07:50:51;17.30;;;15.77;;
7683;SDS011;3884;48.616;12.872;2022-07-30T07:53:23;18.30;;;16.70;;
7683;SDS011;3884;48.616;12.872;2022-07-30T07:55:50;19.23;;;17.53;;
7683;SDS011;3884;48.616;12.872;2022-07-30T07:58:19;17.80;;;16.30;;
7683;SDS011;3884;48.616;12.872;2022-07-30T08:00:46;18.20;;;16.40;;
7683;SDS011;3884;48.616;12.872;2022-07-30T08:03:16;17.17;;;15.60;;
7683;SDS011;3884;48.616;12.872;2022-07-30T08:05:43;16.27;;;14.77;;
7683;SDS011;3884;48.616;12.872;2022-07-30T08:08:22;18.07;;;13.63;;
7683;SDS011;3884;48.616;12.872;2022-07-30T08:11:08;12.87;;;11.77;;
7683;SDS011;3884;48.616;12.872;2022-07-30T08:13:55;14.27;;;12.97;;
7683;SDS011;3884;48.616;12.872;2022-07-30T08:16:51;13.50;;;12.33;;
7683;SDS011;3884;48.616;12.872;2022-07-30T08:19:31;14.20;;;12.87;;
7683;SDS011;3884;48.616;12.872;2022-07-30T08:22:13;12.00;;;10.87;;
7683;SDS011;3884;48.616;12.872;2022-07-30T08:24:40;13.53;;;12.40;;
7683;SDS011;3884;48.616;12.872;2022-07-30T08:27:07;13.00;;;11.87;;
7683;SDS011;3884;48.616;12.872;2022-07-30T08:29:35;10.93;;;9.93;;
7683;SDS011;3884;48.616;12.872;2022-07-30T08:32:02;12.47;;;11.07;;
7683;SDS011;3884;48.616;12.872;2022-07-30T08:34:31;12.70;;;11.60;;
7683;SDS011;3884;48.616;12.872;2022-07-30T08:36:58;13.93;;;12.53;;
7683;SDS011;3884;48.616;12.872;2022-07-30T08:39:25;13.10;;;11.87;;
7683;SDS011;3884;48.616;12.872;2022-07-30T08:41:52;12.50;;;11.40;;
7683;SDS011;3884;48.616;12.872;2022-07-30T08:44:19;10.17;;;9.37;;
7683;SDS011;3884;48.616;12.872;2022-07-30T08:46:49;10.37;;;9.57;;
7683;SDS011;3884;48.616;12.872;2022-07-30T08:49:50;9.07;;;8.17;;
7683;SDS011;3884;48.616;12.872;2022-07-30T08:52:24;9.90;;;9.10;;
7683;SDS011;3884;48.616;12.872;2022-07-30T08:54:58;10.20;;;9.17;;
7683;SDS011;3884;48.616;12.872;2022-07-30T08:57:27;10.33;;;9.43;;
7683;SDS011;3884;48.616;12.872;2022-07-30T08:59:55;11.30;;;8.93;;
7683;SDS011;3884;48.616;12.872;2022-07-30T09:02:22;9.50;;;8.70;;
7683;SDS011;3884;48.616;12.872;2022-07-30T09:05:00;9.47;;;8.57;;
7683;SDS011;3884;48.616;12.872;2022-07-30T09:07:28;9.23;;;8.50;;
7683;SDS011;3884;48.616;12.872;2022-07-30T09:09:55;8.80;;;8.00;;
7683;SDS011;3884;48.616;12.872;2022-07-30T09:12:33;8.47;;;7.60;;
7683;SDS011;3884;48.616;12.872;2022-07-30T09:15:03;7.07;;;6.47;;
7683;SDS011;3884;48.616;12.872;2022-07-30T09:17:48;7.67;;;6.67;;
7683;SDS011;3884;48.616;12.872;2022-07-30T09:20:19;7.70;;;6.90;;
7683;SDS011;3884;48.616;12.872;2022-07-30T09:22:47;6.83;;;6.20;;
7683;SDS011;3884;48.616;12.872;2022-07-30T09:25:35;7.63;;;6.87;;
7683;SDS011;3884;48.616;12.872;2022-07-30T09:28:26;7.50;;;6.80;;
7683;SDS011;3884;48.616;12.872;2022-07-30T09:31:15;6.77;;;6.17;;
7683;SDS011;3884;48.616;12.872;2022-07-30T09:34:02;7.73;;;6.50;;
7683;SDS011;3884;48.616;12.872;2022-07-30T09:37:00;6.77;;;6.17;;
7683;SDS011;3884;48.616;12.872;2022-07-30T09:39:47;6.37;;;5.77;;
7683;SDS011;3884;48.616;12.872;2022-07-30T09:42:31;6.87;;;5.80;;
7683;SDS011;3884;48.616;12.872;2022-07-30T09:45:05;6.07;;;5.57;;
7683;SDS011;3884;48.616;12.872;2022-07-30T09:47:35;5.87;;;5.33;;
7683;SDS011;3884;48.616;12.872;2022-07-30T09:50:04;5.60;;;5.10;;
7683;SDS011;3884;48.616;12.872;2022-07-30T09:52:33;8.83;;;5.03;;
7683;SDS011;3884;48.616;12.872;2022-07-30T09:55:00;5.90;;;4.63;;
7683;SDS011;3884;48.616;12.872;2022-07-30T09:57:29;5.17;;;4.60;;
7683;SDS011;3884;48.616;12.872;2022-07-30T10:00:15;5.40;;;4.53;;
7683;SDS011;3884;48.616;12.872;2022-07-30T10:02:50;4.10;;;3.73;;
7683;SDS011;3884;48.616;12.872;2022-07-30T10:05:35;4.70;;;4.23;;
7683;SDS011;3884;48.616;12.872;2022-07-30T10:08:04;7.47;;;5.40;;
7683;SDS011;3884;48.616;12.872;2022-07-30T10:10:33;4.33;;;4.00;;
7683;SDS011;3884;48.616;12.872;2022-07-30T10:13:01;4.60;;;4.17;;
7683;SDS011;3884;48.616;12.872;2022-07-30T10:15:32;4.30;;;3.90;;
7683;SDS011;3884;48.616;12.872;2022-07-30T10:18:00;4.40;;;3.90;;
7683;SDS011;3884;48.616;12.872;2022-07-30T10:20:48;4.37;;;3.97;;
7683;SDS011;3884;48.616;12.872;2022-07-30T10:23:49;7.50;;;4.60;;
7683;SDS011;3884;48.616;12.872;2022-07-30T10:26:45;11.20;;;3.73;;
7683;SDS011;3884;48.616;12.872;2022-07-30T10:29:39;5.07;;;4.10;;
7683;SDS011;3884;48.616;12.872;2022-07-30T10:32:06;4.60;;;4.20;;
7683;SDS011;3884;48.616;12.872;2022-07-30T10:34:33;5.03;;;4.00;;
7683;SDS011;3884;48.616;12.872;2022-07-30T10:37:01;10.37;;;4.67;;
7683;SDS011;3884;48.616;12.872;2022-07-30T10:39:33;10.70;;;6.10;;
7683;SDS011;3884;48.616;12.872;2022-07-30T10:42:06;6.27;;;5.43;;
7683;SDS011;3884;48.616;12.872;2022-07-30T10:45:02;8.63;;;4.50;;
7683;SDS011;3884;48.616;12.872;2022-07-30T10:47:42;5.20;;;4.67;;
7683;SDS011;3884;48.616;12.872;2022-07-30T10:50:12;4.60;;;4.00;;
7683;SDS011;3884;48.616;12.872;2022-07-30T10:52:44;4.57;;;4.17;;
7683;SDS011;3884;48.616;12.872;2022-07-30T10:55:16;5.57;;;5.07;;
7683;SDS011;3884;48.616;12.872;2022-07-30T10:57:55;6.33;;;5.53;;
7683;SDS011;3884;48.616;12.872;2022-07-30T11:00:24;6.17;;;5.00;;
7683;SDS011;3884;48.616;12.872;2022-07-30T11:05:41;5.60;;;5.10;;
7683;SDS011;3884;48.616;12.872;2022-07-30T11:10:56;5.13;;;4.63;;
7683;SDS011;3884;48.616;12.872;2022-07-30T11:16:20;5.97;;;4.00;;
7683;SDS011;3884;48.616;12.872;2022-07-30T11:19:06;3.83;;;3.53;;
7683;SDS011;3884;48.616;12.872;2022-07-30T11:21:36;3.40;;;3.13;;
7683;SDS011;3884;48.616;12.872;2022-07-30T11:24:03;4.83;;;3.43;;
7683;SDS011;3884;48.616;12.872;2022-07-30T11:29:33;4.40;;;3.97;;
7683;SDS011;3884;48.616;12.872;2022-07-30T11:35:10;5.17;;;3.73;;
7683;SDS011;3884;48.616;12.872;2022-07-30T11:37:53;4.50;;;4.00;;
7683;SDS011;3884;48.616;12.872;2022-07-30T11:40:21;3.80;;;3.50;;
7683;SDS011;3884;48.616;12.872;2022-07-30T11:42:51;4.37;;;3.97;;
7683;SDS011;3884;48.616;12.872;2022-07-30T11:45:42;8.83;;;3.60;;
7683;SDS011;3884;48.616;12.872;2022-07-30T11:48:10;9.43;;;5.63;;
7683;SDS011;3884;48.616;12.872;2022-07-30T11:50:39;4.80;;;3.90;;
7683;SDS011;3884;48.616;12.872;2022-07-30T11:53:07;4.93;;;4.37;;
7683;SDS011;3884;48.616;12.872;2022-07-30T11:55:35;6.13;;;4.20;;
7683;SDS011;3884;48.616;12.872;2022-07-30T11:58:06;5.93;;;4.23;;
7683;SDS011;3884;48.616;12.872;2022-07-30T12:00:35;4.70;;;4.20;;
7683;SDS011;3884;48.616;12.872;2022-07-30T12:03:07;5.87;;;4.97;;
7683;SDS011;3884;48.616;12.872;2022-07-30T12:05:35;7.00;;;5.83;;
7683;SDS011;3884;48.616;12.872;2022-07-30T12:08:03;6.47;;;4.87;;
7683;SDS011;3884;48.616;12.872;2022-07-30T12:10:30;4.70;;;4.27;;
7683;SDS011;3884;48.616;12.872;2022-07-30T12:13:08;6.07;;;4.70;;
7683;SDS011;3884;48.616;12.872;2022-07-30T12:15:37;4.27;;;3.87;;
7683;SDS011;3884;48.616;12.872;2022-07-30T12:18:05;3.97;;;3.53;;
7683;SDS011;3884;48.616;12.872;2022-07-30T12:20:35;4.63;;;3.53;;
7683;SDS011;3884;48.616;12.872;2022-07-30T12:23:08;5.80;;;3.40;;
7683;SDS011;3884;48.616;12.872;2022-07-30T12:25:36;4.23;;;3.57;;
7683;SDS011;3884;48.616;12.872;2022-07-30T12:28:04;4.53;;;3.33;;
7683;SDS011;3884;48.616;12.872;2022-07-30T12:30:32;3.70;;;3.23;;
7683;SDS011;3884;48.616;12.872;2022-07-30T12:32:59;3.73;;;3.43;;
7683;SDS011;3884;48.616;12.872;2022-07-30T12:35:40;4.33;;;3.93;;
7683;SDS011;3884;48.616;12.872;2022-07-30T12:38:08;5.03;;;4.53;;
7683;SDS011;3884;48.616;12.872;2022-07-30T12:40:48;4.80;;;4.40;;
7683;SDS011;3884;48.616;12.872;2022-07-30T12:43:17;6.20;;;4.87;;
7683;SDS011;3884;48.616;12.872;2022-07-30T12:45:45;4.60;;;4.20;;
7683;SDS011;3884;48.616;12.872;2022-07-30T12:48:12;6.17;;;4.73;;
7683;SDS011;3884;48.616;12.872;2022-07-30T12:50:39;5.40;;;4.87;;
7683;SDS011;3884;48.616;12.872;2022-07-30T12:53:06;4.67;;;4.23;;
7683;SDS011;3884;48.616;12.872;2022-07-30T12:55:34;4.53;;;4.23;;
7683;SDS011;3884;48.616;12.872;2022-07-30T12:58:02;4.67;;;4.27;;
7683;SDS011;3884;48.616;12.872;2022-07-30T13:00:31;4.40;;;4.00;;
7683;SDS011;3884;48.616;12.872;2022-07-30T13:03:01;3.90;;;3.60;;
7683;SDS011;3884;48.616;12.872;2022-07-30T13:05:44;3.70;;;3.40;;
7683;SDS011;3884;48.616;12.872;2022-07-30T13:08:12;3.37;;;3.17;;
7683;SDS011;3884;48.616;12.872;2022-07-30T13:10:52;5.03;;;3.00;;
7683;SDS011;3884;48.616;12.872;2022-07-30T13:13:19;3.20;;;2.90;;
7683;SDS011;3884;48.616;12.872;2022-07-30T13:15:55;3.50;;;2.90;;
7683;SDS011;3884;48.616;12.872;2022-07-30T13:18:25;3.10;;;2.80;;
7683;SDS011;3884;48.616;12.872;2022-07-30T13:20:52;3.50;;;3.20;;
7683;SDS011;3884;48.616;12.872;2022-07-30T13:23:19;5.20;;;3.30;;
7683;SDS011;3884;48.616;12.872;2022-07-30T13:25:46;3.40;;;3.10;;
7683;SDS011;3884;48.616;12.872;2022-07-30T13:28:13;3.70;;;3.17;;
7683;SDS011;3884;48.616;12.872;2022-07-30T13:30:39;5.93;;;3.50;;
7683;SDS011;3884;48.616;12.872;2022-07-30T13:33:06;3.17;;;2.97;;
7683;SDS011;3884;48.616;12.872;2022-07-30T13:35:35;3.43;;;3.10;;
7683;SDS011;3884;48.616;12.872;2022-07-30T13:38:02;3.80;;;3.00;;
7683;SDS011;3884;48.616;12.872;2022-07-30T13:40:30;3.23;;;2.97;;
7683;SDS011;3884;48.616;12.872;2022-07-30T13:42:57;3.57;;;3.27;;
7683;SDS011;3884;48.616;12.872;2022-07-30T13:45:25;3.90;;;3.43;;
7683;SDS011;3884;48.616;12.872;2022-07-30T13:47:52;3.83;;;3.50;;
7683;SDS011;3884;48.616;12.872;2022-07-30T13:50:19;4.33;;;3.90;;
7683;SDS011;3884;48.616;12.872;2022-07-30T13:52:47;5.37;;;4.00;;
7683;SDS011;3884;48.616;12.872;2022-07-30T13:55:14;4.40;;;4.00;;
7683;SDS011;3884;48.616;12.872;2022-07-30T13:57:41;4.60;;;4.20;;
7683;SDS011;3884;48.616;12.872;2022-07-30T14:00:08;4.60;;;4.20;;
7683;SDS011;3884;48.616;12.872;2022-07-30T14:02:36;6.67;;;4.00;;
7683;SDS011;3884;48.616;12.872;2022-07-30T14:05:03;4.17;;;3.87;;
7683;SDS011;3884;48.616;12.872;2022-07-30T14:07:31;5.67;;;3.50;;
7683;SDS011;3884;48.616;12.872;2022-07-30T14:10:00;4.13;;;3.40;;
7683;SDS011;3884;48.616;12.872;2022-07-30T14:12:27;4.00;;;3.70;;
7683;SDS011;3884;48.616;12.872;2022-07-30T14:14:54;4.47;;;3.70;;
7683;SDS011;3884;48.616;12.872;2022-07-30T14:17:21;4.07;;;3.67;;
7683;SDS011;3884;48.616;12.872;2022-07-30T14:19:48;3.87;;;3.57;;
7683;SDS011;3884;48.616;12.872;2022-07-30T14:22:18;3.63;;;3.33;;
7683;SDS011;3884;48.616;12.872;2022-07-30T14:24:45;4.57;;;3.80;;
7683;SDS011;3884;48.616;12.872;2022-07-30T14:27:13;4.37;;;3.07;;
7683;SDS011;3884;48.616;12.872;2022-07-30T14:29:40;3.83;;;2.87;;
7683;SDS011;3884;48.616;12.872;2022-07-30T14:32:07;3.30;;;2.77;;
7683;SDS011;3884;48.616;12.872;2022-07-30T14:34:34;2.93;;;2.67;;
7683;SDS011;3884;48.616;12.872;2022-07-30T14:37:01;3.43;;;3.13;;
7683;SDS011;3884;48.616;12.872;2022-07-30T14:39:28;3.83;;;3.27;;
7683;SDS011;3884;48.616;12.872;2022-07-30T14:41:55;3.20;;;2.90;;
7683;SDS011;3884;48.616;12.872;2022-07-30T14:44:23;5.67;;;3.00;;
7683;SDS011;3884;48.616;12.872;2022-07-30T14:46:50;3.67;;;2.97;;
7683;SDS011;3884;48.616;12.872;2022-07-30T14:49:17;4.13;;;3.20;;
7683;SDS011;3884;48.616;12.872;2022-07-30T14:51:44;5.20;;;3.40;;
7683;SDS011;3884;48.616;12.872;2022-07-30T14:54:11;3.40;;;3.10;;
7683;SDS011;3884;48.616;12.872;2022-07-30T14:56:38;4.20;;;3.17;;
7683;SDS011;3884;48.616;12.872;2022-07-30T14:59:05;3.93;;;3.20;;
7683;SDS011;3884;48.616;12.872;2022-07-30T15:01:34;3.77;;;2.80;;
7683;SDS011;3884;48.616;12.872;2022-07-30T15:04:01;3.40;;;3.10;;
7683;SDS011;3884;48.616;12.872;2022-07-30T15:06:28;4.17;;;3.37;;
7683;SDS011;3884;48.616;12.872;2022-07-30T15:08:56;3.40;;;3.10;;
7683;SDS011;3884;48.616;12.872;2022-07-30T15:11:22;4.57;;;3.30;;
7683;SDS011;3884;48.616;12.872;2022-07-30T15:13:49;4.03;;;3.73;;
7683;SDS011;3884;48.616;12.872;2022-07-30T15:16:16;3.53;;;3.23;;
7683;SDS011;3884;48.616;12.872;2022-07-30T15:18:45;3.47;;;2.70;;
7683;SDS011;3884;48.616;12.872;2022-07-30T15:21:12;3.10;;;2.90;;
7683;SDS011;3884;48.616;12.872;2022-07-30T15:23:39;3.30;;;2.73;;
7683;SDS011;3884;48.616;12.872;2022-07-30T15:26:06;3.20;;;2.90;;
7683;SDS011;3884;48.616;12.872;2022-07-30T15:28:33;5.37;;;2.47;;
7683;SDS011;3884;48.616;12.872;2022-07-30T15:31:00;3.63;;;2.87;;
7683;SDS011;3884;48.616;12.872;2022-07-30T15:33:27;4.77;;;2.83;;
7683;SDS011;3884;48.616;12.872;2022-07-30T15:35:55;3.30;;;3.00;;
7683;SDS011;3884;48.616;12.872;2022-07-30T15:38:22;2.87;;;2.50;;